createdAt,value
2022-08-18T00:00:56.651Z,24.3
2022-08-18T00:07:46.941Z,24.3
2022-08-18T00:12:49.544Z,24.3
2022-08-18T00:18:34.919Z,24.3
2022-08-18T00:24:34.086Z,24.3
2022-08-18T00:30:14.257Z,24.3
2022-08-18T00:35:56.747Z,24.3
2022-08-18T00:41:47.567Z,24.3
2022-08-18T00:47:58.537Z,24.3
2022-08-18T00:53:40.605Z,24.3
2022-08-18T00:59:29.578Z,24.3
2022-08-18T01:05:09.358Z,24.2
2022-08-18T01:10:47.310Z,24.3
2022-08-18T01:17:13.639Z,24.3
2022-08-18T01:22:49.577Z,24.3
2022-08-18T01:28:16.947Z,24.3
2022-08-18T01:34:08.123Z,24.3
2022-08-18T01:42:00.823Z,24.3
2022-08-18T01:47:47.578Z,24.2
2022-08-18T01:53:36.648Z,24.3
2022-08-18T01:59:03.776Z,24.3
2022-08-18T02:05:40.979Z,24.2
2022-08-18T02:11:41.722Z,24.3
2022-08-18T02:17:22.511Z,24.3
2022-08-18T02:23:02.356Z,24.3
2022-08-18T02:28:47.069Z,24.2
2022-08-18T02:34:25.354Z,24.2
2022-08-18T02:40:06.222Z,24.3
2022-08-18T02:45:17.943Z,24.2
2022-08-18T02:51:09.263Z,24.2
2022-08-18T02:56:58.443Z,24.3
2022-08-18T03:02:35.946Z,24.2
2022-08-18T03:08:16.414Z,24.2
2022-08-18T03:14:27.888Z,24.3
2022-08-18T03:20:17.475Z,24.2
2022-08-18T03:26:51.667Z,24.2
2022-08-18T03:32:24.335Z,24.2
2022-08-18T03:38:04.210Z,24.1
2022-08-18T03:44:41.010Z,24
2022-08-18T03:50:22.566Z,23.9
2022-08-18T03:56:00.046Z,23.9
2022-08-18T04:01:43.484Z,23.9
2022-08-18T04:07:36.747Z,23.8
2022-08-18T04:13:24.424Z,23.8
2022-08-18T04:19:28.064Z,23.8
2022-08-18T04:25:24.103Z,23.6
2022-08-18T04:31:06.327Z,23.6
2022-08-18T04:36:37.652Z,23.6
2022-08-18T04:42:20.832Z,23.6
2022-08-18T04:48:04.003Z,23.6
2022-08-18T04:55:05.139Z,23.6
2022-08-18T05:00:40.591Z,23.5
2022-08-18T05:06:18.647Z,23.5
2022-08-18T05:11:57.243Z,23.5
2022-08-18T05:18:16.048Z,23.5
2022-08-18T05:24:13.216Z,23.5
2022-08-18T05:30:19.071Z,23.5
2022-08-18T05:36:23.879Z,23.5
2022-08-18T05:42:07.682Z,23.5
2022-08-18T05:47:45.431Z,23.5
2022-08-18T05:53:30.455Z,23.5
2022-08-18T05:59:13.170Z,23.5
2022-08-18T06:04:53.439Z,23.6
2022-08-18T06:10:36.181Z,23.6
2022-08-18T06:16:16.489Z,23.6
2022-08-18T06:21:57.811Z,23.6
2022-08-18T06:27:42.740Z,23.6
2022-08-18T06:33:25.441Z,23.6
2022-08-18T06:39:18.571Z,23.6
2022-08-18T06:45:32.856Z,23.7
2022-08-18T06:51:18.009Z,23.7
2022-08-18T06:57:33.443Z,23.7
2022-08-18T07:03:13.690Z,23.7
2022-08-18T07:09:02.861Z,23.8
2022-08-18T07:14:48.982Z,23.8
2022-08-18T07:21:09.964Z,23.8
2022-08-18T07:27:08.209Z,23.8
2022-08-18T07:32:56.490Z,23.8
2022-08-18T07:39:00.609Z,23.8
2022-08-18T07:45:06.558Z,23.8
2022-08-18T07:52:14.660Z,23.8
2022-08-18T07:59:06.006Z,23.8
2022-08-18T08:05:35.305Z,23.8
2022-08-18T08:11:48.109Z,23.9
2022-08-18T08:18:12.832Z,23.9
2022-08-18T08:24:38.630Z,23.9
2022-08-18T08:30:35.181Z,23.9
2022-08-18T08:37:12.645Z,23.9
2022-08-18T08:43:38.822Z,23.9
2022-08-18T08:49:28.450Z,23.9
2022-08-18T08:55:25.701Z,23.9
2022-08-18T09:01:08.190Z,23.9
2022-08-18T09:07:24.406Z,23.9
2022-08-18T09:13:00.848Z,23.9
2022-08-18T09:18:43.688Z,24
2022-08-18T09:24:24.842Z,24
2022-08-18T09:30:26.028Z,24
2022-08-18T13:11:40.475Z,24.3
2022-08-18T13:18:21.533Z,24.3
2022-08-18T13:24:37.559Z,24.3
2022-08-18T13:31:39.987Z,24.3
2022-08-18T13:38:33.966Z,24.3
2022-08-18T13:45:23.111Z,24.4
2022-08-18T13:51:09.481Z,24.3
2022-08-18T13:57:49.881Z,24.3
2022-08-18T14:04:45.082Z,24.3
2022-08-18T14:11:22.434Z,24.3
2022-08-18T14:17:26.623Z,24.4
2022-08-18T14:23:24.547Z,24.4
2022-08-18T14:30:03.709Z,24.4
2022-08-18T14:37:26.266Z,24.4
2022-08-18T14:43:51.867Z,24.4
2022-08-18T14:51:05.710Z,24.4
2022-08-18T14:57:12.789Z,24.4
2022-08-18T15:03:11.060Z,24.4
2022-08-18T15:10:14.589Z,24.4
2022-08-18T15:16:43.454Z,24.4
2022-08-18T15:24:02.703Z,24.4
2022-08-18T15:30:19.851Z,24.4
2022-08-18T15:37:43.555Z,24.5
2022-08-18T15:44:20.699Z,24.5
2022-08-18T15:50:42.612Z,24.5
2022-08-18T15:57:24.346Z,24.5
2022-08-18T16:04:21.694Z,24.5
2022-08-18T16:10:27.085Z,24.5
2022-08-18T16:16:28.901Z,24.5
2022-08-18T16:22:31.009Z,24.5
2022-08-18T16:28:14.772Z,24.5
2022-08-18T16:33:56.607Z,24.5
2022-08-18T16:39:43.790Z,24.6
2022-08-18T16:45:22.847Z,24.5
2022-08-18T16:51:05.678Z,24.6
2022-08-18T16:57:01.246Z,24.6
2022-08-18T17:03:29.490Z,24.6
2022-08-18T17:09:26.287Z,24.6
2022-08-18T17:15:10.588Z,24.6
2022-08-18T17:20:51.930Z,24.6
2022-08-18T17:26:59.682Z,24.6
2022-08-18T17:33:04.897Z,24.6
2022-08-18T17:38:48.989Z,24.6
2022-08-18T17:44:34.844Z,24.6
2022-08-18T17:50:44.790Z,24.6
2022-08-18T17:56:35.199Z,24.6
2022-08-18T18:03:02.747Z,24.6
2022-08-18T18:08:45.739Z,24.6
2022-08-18T18:14:55.202Z,24.6
2022-08-18T18:20:39.735Z,24.6
2022-08-18T18:26:57.305Z,24.6
2022-08-18T18:32:41.198Z,24.6
2022-08-18T18:38:07.832Z,24.6
2022-08-18T18:43:52.780Z,24.6
2022-08-18T18:50:15.310Z,24.6
2022-08-18T18:56:03.800Z,24.6
2022-08-18T19:01:49.067Z,24.6
2022-08-18T19:07:55.184Z,24.6
2022-08-18T19:13:54.438Z,24.6
2022-08-18T19:20:42.847Z,24.6
2022-08-18T19:28:04.853Z,24.6
2022-08-18T19:34:51.753Z,24.6
2022-08-18T19:41:07.540Z,24.6
2022-08-18T19:47:17.081Z,24.6
2022-08-18T19:53:19.039Z,24.6
2022-08-18T19:58:58.792Z,24.6
2022-08-18T20:04:43.766Z,24.6
2022-08-18T20:10:56.170Z,24.6
2022-08-18T20:17:00.348Z,24.6
2022-08-18T20:22:40.711Z,24.6
2022-08-18T20:28:25.240Z,24.6
2022-08-18T20:34:02.248Z,24.6
2022-08-18T20:39:44.778Z,24.6
2022-08-18T20:45:36.630Z,24.6
2022-08-18T20:51:25.026Z,24.6
2022-08-18T20:57:57.557Z,24.6
2022-08-18T21:03:45.503Z,24.6
2022-08-18T21:09:48.952Z,24.6
2022-08-18T21:15:45.119Z,24.6
2022-08-18T21:21:19.252Z,24.6
2022-08-18T21:27:03.544Z,24.6
2022-08-18T21:33:22.668Z,24.6
2022-08-18T21:38:47.687Z,24.6
2022-08-18T21:44:27.805Z,24.6
2022-08-18T21:49:57.497Z,24.6
2022-08-18T21:55:35.223Z,24.6
2022-08-18T22:01:20.077Z,24.6
2022-08-18T22:07:07.100Z,24.6
2022-08-18T22:13:41.084Z,24.6
2022-08-18T22:19:28.293Z,24.6
2022-08-18T22:24:50.554Z,24.6
2022-08-18T22:30:35.899Z,24.6
2022-08-18T22:36:13.226Z,24.6
2022-08-18T22:41:53.638Z,24.6
2022-08-18T22:47:16.927Z,24.6
2022-08-18T22:53:03.306Z,24.6
2022-08-18T22:59:30.488Z,24.6
2022-08-18T23:04:54.949Z,24.6
2022-08-18T23:10:41.103Z,24.6
2022-08-18T23:16:12.651Z,24.6
2022-08-18T23:22:07.485Z,24.6
2022-08-18T23:27:50.950Z,24.6
2022-08-18T23:33:38.539Z,24.6
2022-08-18T23:39:22.348Z,24.6
2022-08-18T23:45:02.843Z,24.6
2022-08-18T23:50:44.643Z,24.6
2022-08-18T23:56:24.805Z,24.6
